This is the latest recevied weather packets stored in our database for station/object DL8TF-13. If no packets are shown the sender has not sent any weather packets the latest 10 day(s).
| Time | Temp. | Humidity | Pressure | Rain* | Wind** | Luminosity | Snow |
|---|---|---|---|---|---|---|---|
| 1778297683 | 9.44° C | 85% | 986 hPa | - | - | - | - |
| 1778297083 | 10° C | 82% | 986 hPa | - | - | - | - |
| 1778296483 | 9.44° C | 85% | 986 hPa | - | - | - | - |
| 1778295883 | 9.44° C | 85% | 986 hPa | - | - | - | - |
| 1778295283 | 9.44° C | 87% | 986 hPa | - | - | - | - |
| 1778294683 | 10° C | 84% | 986 hPa | - | - | - | - |
| 1778294083 | 10° C | 84% | 986 hPa | - | - | - | - |
| 1778293483 | 10.56° C | 82% | 986 hPa | - | - | - | - |
| 1778292883 | 10.56° C | 82% | 986 hPa | - | - | - | - |
| 1778292283 | 10.56° C | 80% | 986 hPa | - | - | - | - |
| 1778291683 | 10.56° C | 81% | 986 hPa | - | - | - | - |
| 1778291083 | 11.11° C | 78% | 986 hPa | - | - | - | - |
| 1778290483 | 11.67° C | 77% | 986 hPa | - | - | - | - |
| 1778289883 | 11.67° C | 75% | 986 hPa | - | - | - | - |
| 1778289283 | 11.67° C | 76% | 986 hPa | - | - | - | - |
| 1778288682 | 11.67° C | 78% | 986 hPa | - | - | - | - |
| 1778288082 | 11.67° C | 76% | 986 hPa | - | - | - | - |
| 1778287482 | 12.22° C | 74% | 986 hPa | - | - | - | - |
| 1778286882 | 11.67° C | 76% | 986 hPa | - | - | - | - |
| 1778286282 | 12.22° C | 76% | 986 hPa | - | - | - | - |
| 1778285682 | 12.22° C | 73% | 986 hPa | - | - | - | - |
| 1778285082 | 12.22° C | 74% | 986 hPa | - | - | - | - |
| 1778284482 | 12.22° C | 74% | 986 hPa | - | - | - | - |
| 1778283882 | 12.78° C | 72% | 986 hPa | - | - | - | - |
| 1778283282 | 13.33° C | 70% | 986 hPa | - | - | - | - |
* Rain since midnight (hover to see other rain measurements)
** Current wind speed in m/s (hover to see current wind gust speed)